Burley Municipal Airport Burley US
ICAO: KBYI
IATA: BYI
Category: Medium
Scheduled Services: No

Elevation: 4150 ft
TransAlt. 18000 ft.

Airport Communications:
TWIN FALLS APP/DEP:126.7
ASOS:135.575
SALT LAKE CITY CNTR:118.05
CTAF:122.9
BOISE RDO:122.05

KBYI Zoom In..

If you have problems with the map follow the link
https://www.worldairports.se/pages/airport.php?
ICAO=KBYI

Runways:

(A) RW 02 length 4092 ft width 80 ft
---- / hdg 22

(B) RW 06 length 4072 ft width 75 ft
---- / hdg 64

(C) RW 20 length 4092 ft width 80 ft
---- / hdg 202

(D) RW 24 length 4072 ft width 75 ft
---- / hdg 244

Location; KBYI
Day. 19 / Time. 00.53 Zulu
* Altimeter: 30.20
* Temperature: 14° c. 57.2°f.
* Wind from: 270° Speed 04 kn.
Dewpoint: -01° c.
Visibility: 10 Statute Miles.
Clouds: Clear (automated report).

KBYI 190053Z AUTO 27004KT 10SM CLR 14/M01 A3020 RMK AO2 SLP220 T01441006


Wind From 270°
Speed 04 kn.

 
 
jpsmedia.com for Web Design worldairports.se 2018   terms of use